Time;durP1;ratioP1;P1;durP2;ratioP2;P2;SDS_P1;SDS_P2;PMS_P1;PMS_P2;Temp;Humidity;BMP_temperature;BMP_pressure;BME280_temperature;BME280_humidity;BME280_pressure;Samples;Min_cycle;Max_cycle;Signal;HPM_P1;HPM_P2
2024/03/29 01:44:21;;;;;;;0.20;0.13;;;5.20;99.90;;;;;;5064906;28;20213;-69
2024/03/29 01:46:48;;;;;;;0.20;0.20;;;5.40;99.90;;;;;;5051235;28;20226;-66
2024/03/29 01:49:16;;;;;;;0.10;0.10;;;5.60;99.90;;;;;;5043386;28;20739;-67
2024/03/29 01:51:44;;;;;;;0.40;0.40;;;5.80;99.90;;;;;;5044991;28;20205;-67
2024/03/29 01:54:12;;;;;;;1.50;0.33;;;6.10;99.90;;;;;;5046309;28;20201;-67
2024/03/29 01:56:41;;;;;;;1.10;0.37;;;6.30;99.90;;;;;;5046312;28;20299;-66
2024/03/29 01:59:14;;;;;;;0.53;0.53;;;6.30;99.90;;;;;;5045104;28;20204;-66
2024/03/29 02:01:43;;;;;;;0.63;0.33;;;6.20;99.90;;;;;;5037526;28;20193;-67
2024/03/29 02:04:10;;;;;;;0.30;0.10;;;6.40;99.90;;;;;;5044015;28;20587;-67
2024/03/29 02:06:38;;;;;;;0.07;0.00;;;6.90;99.90;;;;;;5047746;28;20212;-68
2024/03/29 02:09:05;;;;;;;0.00;0.00;;;7.60;99.90;;;;;;5040696;28;20203;-67
2024/03/29 02:11:32;;;;;;;0.00;0.00;;;8.30;99.90;;;;;;5045972;28;20215;-67
2024/03/29 02:13:58;;;;;;;0.43;0.10;;;8.70;99.90;;;;;;5041284;28;20276;-66
2024/03/29 02:16:25;;;;;;;0.07;0.07;;;9.10;99.90;;;;;;5043385;28;20696;-67
2024/03/29 02:18:54;;;;;;;0.27;0.10;;;9.30;99.90;;;;;;5042298;28;20198;-67
2024/03/29 02:21:20;;;;;;;0.00;0.00;;;9.40;99.90;;;;;;5039867;28;20626;-66
2024/03/29 02:23:50;;;;;;;0.00;0.00;;;9.30;99.90;;;;;;5045568;28;20194;-66
2024/03/29 02:26:19;;;;;;;0.03;0.00;;;9.10;99.90;;;;;;5048058;28;20224;-67
2024/03/29 02:28:46;;;;;;;1.03;0.10;;;8.90;99.90;;;;;;5040977;28;20636;-66
2024/03/29 02:31:13;;;;;;;0.93;0.10;;;8.80;99.90;;;;;;5040517;28;20653;-66
2024/03/29 02:33:40;;;;;;;0.73;0.10;;;8.80;99.90;;;;;;5031187;28;20196;-67
2024/03/29 02:36:07;;;;;;;0.97;0.10;;;8.80;99.90;;;;;;5032391;28;20231;-67
2024/03/29 02:38:34;;;;;;;0.10;0.10;;;8.80;99.90;;;;;;5043553;28;20567;-68
2024/03/29 02:41:01;;;;;;;0.13;0.13;;;8.80;99.90;;;;;;5040807;28;20648;-67
2024/03/29 02:43:29;;;;;;;0.67;0.00;;;8.60;99.90;;;;;;5040831;28;20556;-67
2024/03/29 02:45:55;;;;;;;0.10;0.10;;;8.40;99.90;;;;;;5040532;28;20204;-67
2024/03/29 02:48:22;;;;;;;0.10;0.10;;;8.20;99.90;;;;;;5041128;28;20237;-67
2024/03/29 02:50:48;;;;;;;0.33;0.10;;;8.00;99.90;;;;;;5044922;28;20199;-67
2024/03/29 02:53:15;;;;;;;0.20;0.10;;;7.80;99.90;;;;;;5042234;28;20199;-66
2024/03/29 02:55:41;;;;;;;1.00;0.20;;;8.00;99.90;;;;;;5052580;28;20249;-69
2024/03/29 02:58:08;;;;;;;0.20;0.20;;;7.90;99.90;;;;;;5040850;28;20208;-66
2024/03/29 03:00:36;;;;;;;0.20;0.20;;;7.90;99.90;;;;;;5033138;28;20196;-67
2024/03/29 03:03:03;;;;;;;0.27;0.20;;;7.90;99.90;;;;;;5039283;28;20732;-67
2024/03/29 03:05:30;;;;;;;0.00;0.00;;;7.90;99.90;;;;;;5045033;28;20262;-67
2024/03/29 03:11:00;;;;;;;0.20;0.20;;;8.60;99.90;;;;;;5037524;28;20254;-67
2024/03/29 03:13:28;;;;;;;0.00;0.00;;;8.90;99.90;;;;;;5026906;28;20235;-67
2024/03/29 03:15:57;;;;;;;0.00;0.00;;;9.00;99.90;;;;;;5040383;28;20232;-66
2024/03/29 03:18:24;;;;;;;0.10;0.10;;;9.20;99.90;;;;;;5041928;28;20246;-66
2024/03/29 03:20:53;;;;;;;0.87;0.10;;;9.40;99.90;;;;;;5044330;28;20245;-67
2024/03/29 03:23:21;;;;;;;0.20;0.07;;;9.40;99.90;;;;;;5048211;28;20712;-68
2024/03/29 03:25:53;;;;;;;0.20;0.00;;;9.40;99.90;;;;;;5044596;28;20618;-66
2024/03/29 03:28:20;;;;;;;0.60;0.10;;;9.50;99.90;;;;;;5045852;28;20199;-66
2024/03/29 03:30:46;;;;;;;1.30;0.10;;;9.90;99.90;;;;;;5039552;28;20200;-67
2024/03/29 03:33:15;;;;;;;0.00;0.00;;;10.00;99.90;;;;;;5040054;28;20627;-67
2024/03/29 03:35:41;;;;;;;0.00;0.00;;;10.30;99.90;;;;;;5052644;28;20206;-67
2024/03/29 03:38:09;;;;;;;1.70;0.10;;;10.50;99.90;;;;;;5035160;28;20764;-67
2024/03/29 03:40:35;;;;;;;0.10;0.00;;;10.60;99.90;;;;;;5043081;28;20258;-67
2024/03/29 03:43:03;;;;;;;1.00;0.00;;;10.90;99.90;;;;;;5038104;28;20334;-66
2024/03/29 03:45:29;;;;;;;0.10;0.00;;;10.90;99.90;;;;;;5051651;28;20206;-66
2024/03/29 03:47:57;;;;;;;0.20;0.00;;;10.90;99.90;;;;;;5039506;28;20213;-66
2024/03/29 03:50:24;;;;;;;0.00;0.00;;;11.00;99.90;;;;;;5041590;28;20212;-66
2024/03/29 03:52:55;;;;;;;1.90;0.00;;;11.10;99.90;;;;;;5042576;28;20577;-67
2024/03/29 03:55:20;;;;;;;0.47;0.10;;;11.20;99.90;;;;;;5040275;28;20205;-67
2024/03/29 03:57:51;;;;;;;0.43;0.00;;;11.30;99.90;;;;;;5028383;28;20645;-66
2024/03/29 04:00:19;;;;;;;0.40;0.00;;;11.40;99.90;;;;;;5029555;28;20650;-66
2024/03/29 04:02:49;;;;;;;0.53;0.03;;;11.60;99.90;;;;;;5034262;28;20224;-67
2024/03/29 04:05:15;;;;;;;0.90;0.00;;;11.80;99.90;;;;;;5030450;28;20207;-66
2024/03/29 04:07:43;;;;;;;0.50;0.07;;;11.80;99.90;;;;;;5028780;28;20222;-66
2024/03/29 04:10:10;;;;;;;0.23;0.10;;;11.80;99.90;;;;;;5029365;28;20624;-66
2024/03/29 04:12:37;;;;;;;0.10;0.10;;;12.00;99.90;;;;;;5024930;28;20281;-66
2024/03/29 04:15:03;;;;;;;1.37;0.20;;;12.10;99.90;;;;;;5029819;28;20204;-67
2024/03/29 04:17:31;;;;;;;0.13;0.00;;;12.10;99.90;;;;;;5029225;28;20321;-67
2024/03/29 04:19:57;;;;;;;0.03;0.00;;;12.20;99.90;;;;;;5028843;28;20231;-67
2024/03/29 04:22:24;;;;;;;0.00;0.00;;;12.20;99.90;;;;;;5025379;28;20201;-66
2024/03/29 04:24:51;;;;;;;0.10;0.10;;;12.20;99.90;;;;;;5029727;28;20202;-67
2024/03/29 04:27:18;;;;;;;1.07;0.00;;;12.00;99.90;;;;;;5027509;28;20231;-66
2024/03/29 04:29:44;;;;;;;0.10;0.10;;;12.20;99.90;;;;;;5029123;28;20209;-66
2024/03/29 04:32:11;;;;;;;0.10;0.10;;;12.30;99.90;;;;;;5030162;28;20713;-66
2024/03/29 04:34:37;;;;;;;1.80;0.10;;;12.30;99.90;;;;;;5022474;28;20227;-67
2024/03/29 04:37:04;;;;;;;0.50;0.10;;;12.20;99.90;;;;;;5024105;28;20371;-67
2024/03/29 04:39:31;;;;;;;0.10;0.00;;;12.30;99.90;;;;;;5027998;28;20209;-68
2024/03/29 04:42:00;;;;;;;0.33;0.10;;;12.30;99.90;;;;;;5030355;28;20208;-67
2024/03/29 04:44:28;;;;;;;0.43;0.17;;;12.40;99.90;;;;;;5027618;28;20200;-67
2024/03/29 04:46:55;;;;;;;0.17;0.10;;;12.50;99.90;;;;;;5029531;28;20274;-67
2024/03/29 04:49:30;;;;;;;0.00;0.00;;;12.60;99.90;;;;;;5024358;28;20255;-68
2024/03/29 04:51:57;;;;;;;0.10;0.10;;;12.60;99.90;;;;;;5030514;28;20267;-68
2024/03/29 04:54:24;;;;;;;0.10;0.00;;;12.80;99.90;;;;;;5025549;28;20721;-68
2024/03/29 04:56:51;;;;;;;0.20;0.10;;;12.90;99.90;;;;;;5023052;28;20283;-68
2024/03/29 04:59:20;;;;;;;0.10;0.10;;;12.90;99.90;;;;;;5024252;28;20204;-69
2024/03/29 05:01:50;;;;;;;0.97;0.00;;;12.90;99.90;;;;;;5029525;28;20237;-67
2024/03/29 05:04:18;;;;;;;0.80;0.50;;;12.90;99.90;;;;;;5030657;28;20980;-68
2024/03/29 05:06:45;;;;;;;1.23;0.10;;;12.80;99.90;;;;;;5019541;28;20233;-67
2024/03/29 05:09:12;;;;;;;0.00;0.00;;;12.70;99.90;;;;;;5025085;28;20208;-68
2024/03/29 05:11:39;;;;;;;0.20;0.20;;;12.70;99.90;;;;;;5025132;28;20200;-68
2024/03/29 05:14:06;;;;;;;1.00;0.20;;;12.70;99.90;;;;;;5025648;28;20213;-68
2024/03/29 05:16:34;;;;;;;0.30;0.10;;;12.60;99.90;;;;;;5029939;28;20632;-67
2024/03/29 05:19:01;;;;;;;0.20;0.00;;;12.70;99.90;;;;;;5024403;28;20302;-69
2024/03/29 05:21:28;;;;;;;0.87;0.10;;;12.70;99.90;;;;;;5025852;28;20205;-67
2024/03/29 05:23:55;;;;;;;0.20;0.10;;;12.70;99.90;;;;;;5026785;28;20224;-68
2024/03/29 05:26:22;;;;;;;0.37;0.17;;;12.70;99.90;;;;;;5031503;28;20267;-68
2024/03/29 05:28:49;;;;;;;0.20;0.20;;;12.80;99.90;;;;;;5032511;28;20253;-68
2024/03/29 05:31:16;;;;;;;0.00;0.00;;;12.80;99.90;;;;;;5033337;28;20252;-68
2024/03/29 05:33:45;;;;;;;0.10;0.10;;;12.80;99.90;;;;;;5033426;28;20202;-67
2024/03/29 05:36:13;;;;;;;0.40;0.10;;;12.80;99.90;;;;;;5025438;28;20603;-68
2024/03/29 05:38:40;;;;;;;0.20;0.10;;;12.80;99.90;;;;;;5021898;28;20732;-68
2024/03/29 05:41:07;;;;;;;1.90;0.30;;;13.00;99.90;;;;;;5033044;28;20206;-68
2024/03/29 05:43:34;;;;;;;0.90;0.10;;;13.10;99.90;;;;;;5033357;28;20274;-67
2024/03/29 05:46:01;;;;;;;0.20;0.10;;;13.20;99.90;;;;;;5033595;28;20222;-68
2024/03/29 05:48:28;;;;;;;1.43;0.20;;;13.30;99.90;;;;;;5031290;28;20266;-67
2024/03/29 05:50:57;;;;;;;0.50;0.50;;;13.30;99.90;;;;;;5033041;28;20359;-68
2024/03/29 05:53:24;;;;;;;0.97;0.63;;;13.40;99.90;;;;;;5025508;28;20260;-68
2024/03/29 05:55:51;;;;;;;0.10;0.10;;;13.50;99.90;;;;;;5032723;28;20271;-68
2024/03/29 05:58:20;;;;;;;0.10;0.10;;;13.50;99.90;;;;;;5029674;28;20217;-68
2024/03/29 06:00:48;;;;;;;0.10;0.10;;;13.50;99.90;;;;;;5031487;28;20292;-68
2024/03/29 06:03:15;;;;;;;0.20;0.10;;;13.70;99.90;;;;;;5027796;28;20622;-69
2024/03/29 06:05:42;;;;;;;1.07;0.30;;;13.70;99.90;;;;;;5028777;28;20202;-67
2024/03/29 06:08:11;;;;;;;0.50;0.10;;;13.70;99.90;;;;;;5023684;28;20719;-67
2024/03/29 06:10:38;;;;;;;0.10;0.10;;;13.80;99.90;;;;;;5032506;28;20198;-67
2024/03/29 06:13:10;;;;;;;1.90;0.10;;;13.70;99.90;;;;;;5029110;28;20257;-67
2024/03/29 06:18:21;;;;;;;0.00;0.00;;;13.80;99.90;;;;;;5030309;28;20315;-68
2024/03/29 06:20:48;;;;;;;0.33;0.10;;;13.80;99.90;;;;;;5027367;28;20201;-68
2024/03/29 06:23:17;;;;;;;0.20;0.20;;;13.90;99.90;;;;;;5031123;28;20731;-68
2024/03/29 06:25:45;;;;;;;0.53;0.17;;;14.00;99.90;;;;;;5017987;28;20256;-67
2024/03/29 06:28:12;;;;;;;0.37;0.10;;;14.10;99.90;;;;;;5026856;28;20206;-67
2024/03/29 06:30:41;;;;;;;1.13;0.10;;;14.40;99.90;;;;;;5032468;28;20264;-67
2024/03/29 06:33:08;;;;;;;0.47;0.10;;;14.50;99.90;;;;;;5028428;28;20625;-67
2024/03/29 06:35:35;;;;;;;0.97;0.87;;;14.60;99.90;;;;;;5031679;28;20593;-67
2024/03/29 06:38:03;;;;;;;0.20;0.10;;;14.80;99.90;;;;;;5018377;28;20273;-68
2024/03/29 06:40:31;;;;;;;0.23;0.10;;;14.80;99.90;;;;;;5024741;28;20522;-67
2024/03/29 06:42:59;;;;;;;0.63;0.10;;;15.10;99.90;;;;;;5022119;28;20659;-68
2024/03/29 06:45:26;;;;;;;0.10;0.10;;;15.20;99.90;;;;;;5030793;28;20202;-67
2024/03/29 06:47:56;;;;;;;0.20;0.10;;;15.60;99.90;;;;;;5026567;28;20632;-68
2024/03/29 06:50:23;;;;;;;2.17;1.07;;;16.00;99.90;;;;;;5033430;28;20256;-67
2024/03/29 06:52:50;;;;;;;0.10;0.10;;;16.60;99.90;;;;;;5022489;28;20302;-68
2024/03/29 06:55:17;;;;;;;0.30;0.17;;;17.20;99.90;;;;;;5029007;28;20202;-68
2024/03/29 06:57:45;;;;;;;2.07;0.23;;;17.70;99.90;;;;;;5024078;28;20223;-68
2024/03/29 07:00:13;;;;;;;0.10;0.10;;;18.00;99.90;;;;;;5027593;28;20210;-68
2024/03/29 07:02:40;;;;;;;0.10;0.10;;;18.20;99.90;;;;;;5023262;28;20198;-68
2024/03/29 07:05:11;;;;;;;0.23;0.10;;;18.10;99.90;;;;;;5026388;28;20625;-67
2024/03/29 07:07:40;;;;;;;2.10;0.10;;;18.00;99.90;;;;;;5022044;28;20222;-67
2024/03/29 07:10:07;;;;;;;1.83;0.20;;;;;;;;;;5022309;28;20218;-68
2024/03/29 07:12:34;;;;;;;1.20;0.10;;;;;;;;;;5029592;28;20248;-68
2024/03/29 07:15:03;;;;;;;1.13;0.07;;;;;;;;;;5030886;28;20648;-67
2024/03/29 07:17:30;;;;;;;1.73;0.10;;;;;;;;;;5028024;28;20254;-68
2024/03/29 07:19:57;;;;;;;0.50;0.10;;;17.70;99.90;;;;;;5026772;28;20272;-68
2024/03/29 07:22:24;;;;;;;0.00;0.00;;;17.60;99.90;;;;;;5024791;28;20203;-67
2024/03/29 07:24:51;;;;;;;1.80;0.10;;;17.50;99.90;;;;;;5022214;28;20389;-68
2024/03/29 07:27:20;;;;;;;0.10;0.10;;;17.40;99.90;;;;;;5022269;28;20273;-68
2024/03/29 07:29:47;;;;;;;1.50;0.20;;;16.90;99.90;;;;;;5022089;28;20313;-68
2024/03/29 07:32:16;;;;;;;0.70;0.00;;;16.70;99.90;;;;;;5022342;28;20202;-68
2024/03/29 07:34:43;;;;;;;1.73;0.10;;;16.90;99.90;;;;;;5018524;28;21616;-68
2024/03/29 07:37:14;;;;;;;0.10;0.10;;;17.20;99.90;;;;;;5018075;28;20635;-68
2024/03/29 07:39:41;;;;;;;0.13;0.10;;;17.40;99.90;;;;;;5022403;28;20686;-68
2024/03/29 07:42:09;;;;;;;2.27;0.10;;;17.30;99.90;;;;;;5023796;28;20653;-70
2024/03/29 07:44:36;;;;;;;0.40;0.10;;;17.60;99.90;;;;;;5019428;28;20217;-67
2024/03/29 07:47:03;;;;;;;0.83;0.10;;;17.90;99.90;;;;;;5021900;28;20500;-69
2024/03/29 07:49:32;;;;;;;2.23;0.00;;;18.00;99.90;;;;;;5025009;28;21019;-67
2024/03/29 07:51:59;;;;;;;1.10;0.10;;;18.00;99.90;;;;;;5026554;28;20625;-68
2024/03/29 07:54:26;;;;;;;0.20;0.10;;;18.20;99.90;;;;;;5026403;28;20199;-68
2024/03/29 07:56:53;;;;;;;1.30;0.10;;;18.20;99.90;;;;;;5024786;28;20219;-68
2024/03/29 07:59:21;;;;;;;0.40;0.10;;;18.10;99.90;;;;;;5025807;28;20702;-70
2024/03/29 08:01:52;;;;;;;0.57;0.00;;;18.20;99.90;;;;;;5029811;28;20242;-68
2024/03/29 08:04:19;;;;;;;5.07;0.67;;;18.10;99.90;;;;;;5019778;28;20288;-69
2024/03/29 08:06:47;;;;;;;0.10;0.10;;;18.10;99.90;;;;;;5023833;28;20276;-68
2024/03/29 08:09:15;;;;;;;0.10;0.07;;;18.00;99.90;;;;;;5021632;28;20199;-67
2024/03/29 08:11:42;;;;;;;1.50;0.30;;;18.00;99.90;;;;;;5021613;28;20198;-68
2024/03/29 08:14:09;;;;;;;0.23;0.10;;;18.00;99.90;;;;;;5024174;28;20206;-68
2024/03/29 08:16:36;;;;;;;0.60;0.00;;;17.80;99.90;;;;;;5021935;28;20780;-67
2024/03/29 08:19:03;;;;;;;0.00;0.00;;;17.60;99.90;;;;;;5021408;28;20774;-68
2024/03/29 08:21:30;;;;;;;0.07;0.00;;;17.70;99.90;;;;;;5029482;28;20202;-68
2024/03/29 08:24:00;;;;;;;0.00;0.00;;;17.60;99.90;;;;;;5020860;28;20277;-69
2024/03/29 08:26:28;;;;;;;1.80;0.10;;;17.50;99.90;;;;;;5018799;28;20221;-68
2024/03/29 08:28:55;;;;;;;1.20;0.10;;;17.50;99.90;;;;;;5023636;28;20654;-69
2024/03/29 08:31:22;;;;;;;0.00;0.00;;;17.60;99.90;;;;;;5019911;28;20712;-68
2024/03/29 08:33:49;;;;;;;0.10;0.10;;;17.80;99.90;;;;;;5018936;28;20206;-69
2024/03/29 08:36:16;;;;;;;2.13;0.10;;;18.00;99.90;;;;;;5007130;28;20792;-68
2024/03/29 08:38:45;;;;;;;0.00;0.00;;;18.10;99.90;;;;;;5000251;28;20434;-69
2024/03/29 08:41:14;;;;;;;0.00;0.00;;;18.10;99.90;;;;;;5002606;28;20300;-68
2024/03/29 08:43:41;;;;;;;0.00;0.00;;;18.20;99.90;;;;;;5014922;28;20206;-67
2024/03/29 08:46:09;;;;;;;0.10;0.10;;;18.30;99.90;;;;;;5015374;28;20230;-68
2024/03/29 08:48:37;;;;;;;0.00;0.00;;;18.40;99.90;;;;;;5017256;28;20207;-69
2024/03/29 08:51:04;;;;;;;0.67;0.00;;;18.80;99.90;;;;;;5017630;28;20590;-68
2024/03/29 08:53:31;;;;;;;0.20;0.20;;;19.00;99.90;;;;;;5021024;28;20198;-68
2024/03/29 08:55:58;;;;;;;0.23;0.00;;;18.90;99.90;;;;;;5015873;28;20194;-68
2024/03/29 08:58:27;;;;;;;0.47;0.00;;;19.00;99.90;;;;;;5015030;28;20289;-68
2024/03/29 09:00:55;;;;;;;0.53;0.53;;;19.00;99.90;;;;;;5023296;28;20202;-68
2024/03/29 09:03:22;;;;;;;0.30;0.00;;;18.90;99.90;;;;;;5022630;28;20284;-68
2024/03/29 09:05:49;;;;;;;0.47;0.00;;;18.70;99.90;;;;;;5025373;28;20244;-67
2024/03/29 09:08:16;;;;;;;0.93;0.00;;;18.60;99.90;;;;;;5025849;28;20195;-68
2024/03/29 09:10:43;;;;;;;0.00;0.00;;;18.60;99.90;;;;;;5022893;28;20229;-67
2024/03/29 09:13:10;;;;;;;0.00;0.00;;;18.60;99.90;;;;;;5023024;28;20256;-68
2024/03/29 09:15:39;;;;;;;0.20;0.00;;;18.50;99.90;;;;;;5021392;28;20199;-68
2024/03/29 09:18:16;;;;;;;0.00;0.00;;;18.50;99.90;;;;;;5021160;28;20226;-69
2024/03/29 09:20:44;;;;;;;0.03;0.00;;;18.50;99.90;;;;;;5032378;28;20198;-67
2024/03/29 09:23:12;;;;;;;1.50;0.00;;;18.70;99.90;;;;;;5039061;28;20263;-68
2024/03/29 09:25:41;;;;;;;0.00;0.00;;;19.00;99.90;;;;;;5041101;28;20572;-68
2024/03/29 09:28:09;;;;;;;0.00;0.00;;;18.90;99.90;;;;;;5048222;28;20722;-69
2024/03/29 09:30:38;;;;;;;0.00;0.00;;;19.00;99.90;;;;;;5044516;28;20209;-68
2024/03/29 09:33:07;;;;;;;0.00;0.00;;;19.00;99.90;;;;;;5041095;28;20199;-68
2024/03/29 09:35:34;;;;;;;0.00;0.00;;;19.10;99.90;;;;;;5044150;28;20198;-68
2024/03/29 09:38:01;;;;;;;0.10;0.00;;;19.10;99.90;;;;;;5045098;28;20295;-68
2024/03/29 09:40:29;;;;;;;0.10;0.00;;;19.10;99.90;;;;;;5039608;28;20264;-67
2024/03/29 09:43:02;;;;;;;0.90;0.00;;;19.20;99.90;;;;;;5034444;28;20222;-68
2024/03/29 09:45:32;;;;;;;2.10;0.00;;;19.30;99.90;;;;;;5035486;28;20628;-67
2024/03/29 09:48:02;;;;;;;0.07;0.00;;;19.50;99.90;;;;;;5045566;28;20218;-68
2024/03/29 09:50:29;;;;;;;0.00;0.00;;;19.50;99.90;;;;;;5042581;28;20249;-68
2024/03/29 09:52:59;;;;;;;0.00;0.00;;;19.60;99.90;;;;;;5045230;28;20244;-68
2024/03/29 09:55:26;;;;;;;0.37;0.00;;;19.50;99.90;;;;;;5043660;28;20209;-68
2024/03/29 09:57:54;;;;;;;0.00;0.00;;;19.30;99.90;;;;;;5038428;28;20284;-68
2024/03/29 10:00:21;;;;;;;0.10;0.00;;;19.20;99.90;;;;;;5038709;28;20198;-68
2024/03/29 10:02:56;;;;;;;1.40;0.87;;;19.10;99.90;;;;;;5044851;28;20609;-67
2024/03/29 10:05:26;;;;;;;0.00;0.00;;;19.00;99.90;;;;;;5045797;28;20240;-68
2024/03/29 10:07:56;;;;;;;0.30;0.00;;;19.00;99.90;;;;;;5050789;28;20221;-68
2024/03/29 10:10:23;;;;;;;0.00;0.00;;;19.10;99.90;;;;;;5039969;28;20282;-68
2024/03/29 10:12:54;;;;;;;1.87;0.00;;;19.20;99.90;;;;;;5042523;28;20221;-68
2024/03/29 10:15:24;;;;;;;0.20;0.00;;;19.30;99.90;;;;;;5042651;28;20210;-67
2024/03/29 10:17:55;;;;;;;0.00;0.00;;;19.30;99.90;;;;;;5051337;28;20229;-68
2024/03/29 10:20:26;;;;;;;0.97;0.00;;;19.30;99.90;;;;;;5042611;28;20550;-68
2024/03/29 10:23:02;;;;;;;0.00;0.00;;;19.40;99.90;;;;;;5046670;28;20237;-68
2024/03/29 10:25:32;;;;;;;0.00;0.00;;;19.40;99.90;;;;;;5040399;28;20723;-68
2024/03/29 10:28:01;;;;;;;0.77;0.00;;;19.50;99.90;;;;;;5032658;28;20218;-68
2024/03/29 10:30:29;;;;;;;0.00;0.00;;;19.60;99.90;;;;;;5033578;28;20206;-68
2024/03/29 10:32:56;;;;;;;0.63;0.10;;;19.80;99.90;;;;;;5033304;28;20252;-69
2024/03/29 10:35:26;;;;;;;0.00;0.00;;;20.00;99.90;;;;;;5033356;28;20199;-68
2024/03/29 10:37:57;;;;;;;2.53;0.60;;;19.90;99.90;;;;;;5029135;28;20441;-65
2024/03/29 10:40:25;;;;;;;0.33;0.00;;;19.80;99.90;;;;;;5028426;28;20570;-65
2024/03/29 10:42:53;;;;;;;4.53;0.60;;;19.70;99.90;;;;;;5017413;28;20196;-65
2024/03/29 10:45:23;;;;;;;0.00;0.00;;;19.70;99.90;;;;;;5027890;28;20206;-65
2024/03/29 10:47:55;;;;;;;0.43;0.00;;;;;;;;;;5029724;28;20218;-65
2024/03/29 10:50:23;;;;;;;0.37;0.00;;;;;;;;;;5022512;28;20195;-69
2024/03/29 10:52:55;;;;;;;2.83;0.10;;;;;;;;;;5037209;28;20212;-66
2024/03/29 10:55:22;;;;;;;0.00;0.00;;;19.80;99.90;;;;;;5036567;28;20245;-68
2024/03/29 10:57:56;;;;;;;1.40;0.00;;;19.90;99.90;;;;;;5032339;28;20678;-67
2024/03/29 11:00:24;;;;;;;0.00;0.00;;;19.70;99.90;;;;;;5033197;28;20620;-67
2024/03/29 11:02:58;;;;;;;1.13;0.00;;;19.80;99.90;;;;;;5040960;28;20256;-67
2024/03/29 11:05:26;;;;;;;0.00;0.00;;;19.60;99.90;;;;;;5033645;28;20609;-67
2024/03/29 11:07:57;;;;;;;0.00;0.00;;;19.50;99.90;;;;;;5032176;28;20277;-67
2024/03/29 11:10:30;;;;;;;0.50;0.00;;;19.50;99.90;;;;;;5030869;28;20202;-68
2024/03/29 11:13:03;;;;;;;0.00;0.00;;;19.50;99.90;;;;;;5037488;28;20686;-67
2024/03/29 11:15:32;;;;;;;1.07;0.00;;;19.40;99.90;;;;;;5042345;28;20581;-68
2024/03/29 11:17:59;;;;;;;0.10;0.00;;;19.50;99.90;;;;;;5027878;28;20218;-67
2024/03/29 11:20:34;;;;;;;0.00;0.00;;;19.50;99.90;;;;;;5030964;28;20222;-67
2024/03/29 11:23:10;;;;;;;0.00;0.00;;;20.00;99.90;;;;;;5032431;28;20296;-67
2024/03/29 11:25:44;;;;;;;0.00;0.00;;;;;;;;;;5039462;28;20198;-69
2024/03/29 11:28:15;;;;;;;0.00;0.00;;;;;;;;;;5047036;28;20280;-70
2024/03/29 11:30:43;;;;;;;0.07;0.07;;;21.30;99.90;;;;;;5045688;28;20207;-70
2024/03/29 11:33:25;;;;;;;0.97;0.00;;;;;;;;;;5012888;28;20230;-72
2024/03/29 11:35:52;;;;;;;0.00;0.00;;;;;;;;;;5020752;28;20261;-70
2024/03/29 11:38:21;;;;;;;0.00;0.00;;;21.70;99.90;;;;;;5031034;28;20199;-70
2024/03/29 11:40:56;;;;;;;0.97;0.10;;;21.90;99.90;;;;;;5032162;28;20206;-70
2024/03/29 11:43:23;;;;;;;0.00;0.00;;;21.90;99.90;;;;;;5032365;28;20233;-68
2024/03/29 11:45:54;;;;;;;0.10;0.10;;;22.10;99.90;;;;;;5032979;28;20199;-69
2024/03/29 11:48:26;;;;;;;0.33;0.00;;;22.20;99.90;;;;;;5023412;28;20663;-68
2024/03/29 11:50:53;;;;;;;1.70;0.00;;;21.90;99.90;;;;;;5039212;28;20713;-69
2024/03/29 11:53:22;;;;;;;0.00;0.00;;;21.80;99.50;;;;;;5047681;28;20206;-70
2024/03/29 11:55:53;;;;;;;0.17;0.00;;;21.30;99.90;;;;;;5031789;28;20221;-68
2024/03/29 11:58:20;;;;;;;0.00;0.00;;;21.00;99.50;;;;;;5030791;28;20207;-67
2024/03/29 12:00:48;;;;;;;3.47;0.00;;;20.80;99.90;;;;;;5024397;28;20317;-69
2024/03/29 12:03:15;;;;;;;0.10;0.00;;;20.70;99.50;;;;;;5021896;28;20288;-69
2024/03/29 12:05:43;;;;;;;0.00;0.00;;;20.70;99.90;;;;;;5029303;28;20211;-70
2024/03/29 12:08:10;;;;;;;0.77;0.00;;;20.70;99.30;;;;;;5029006;28;20211;-68
2024/03/29 12:10:40;;;;;;;0.43;0.00;;;20.60;99.10;;;;;;5030258;28;20234;-69
2024/03/29 12:13:07;;;;;;;1.70;0.00;;;20.70;99.60;;;;;;5031589;28;20215;-71
2024/03/29 12:15:34;;;;;;;2.03;0.13;;;21.00;99.90;;;;;;5030698;28;20211;-69
2024/03/29 12:18:04;;;;;;;4.00;0.43;;;21.30;98.90;;;;;;5034539;28;20228;-68
2024/03/29 12:20:32;;;;;;;0.00;0.00;;;21.50;99.10;;;;;;5030333;28;20219;-67
2024/03/29 12:23:01;;;;;;;2.53;0.20;;;21.70;99.90;;;;;;5028401;28;20198;-66
2024/03/29 12:25:30;;;;;;;0.37;0.00;;;21.90;99.60;;;;;;5030924;28;20236;-66
2024/03/29 12:28:00;;;;;;;1.50;0.00;;;21.90;99.20;;;;;;5030932;28;20621;-67
2024/03/29 12:30:29;;;;;;;0.50;0.00;;;21.90;99.90;;;;;;5023453;28;20199;-69
2024/03/29 12:33:03;;;;;;;0.20;0.00;;;21.90;99.30;;;;;;5028311;28;20210;-68
2024/03/29 12:35:30;;;;;;;0.00;0.00;;;22.00;99.00;;;;;;5030313;28;20237;-67
2024/03/29 12:38:02;;;;;;;0.53;0.00;;;21.80;99.10;;;;;;5026035;28;20265;-67
2024/03/29 12:40:35;;;;;;;0.00;0.00;;;21.50;98.60;;;;;;5030309;28;20705;-67
2024/03/29 12:43:05;;;;;;;0.83;0.00;;;21.30;98.60;;;;;;5030610;28;20201;-67
2024/03/29 12:45:32;;;;;;;0.83;0.00;;;21.20;99.20;;;;;;5029978;28;20297;-67
2024/03/29 12:47:59;;;;;;;2.53;0.00;;;21.20;99.10;;;;;;5025560;28;20601;-68
2024/03/29 12:50:28;;;;;;;0.60;0.60;;;21.40;98.60;;;;;;5021040;28;20214;-66
2024/03/29 12:52:56;;;;;;;0.60;0.00;;;21.80;99.10;;;;;;5030730;28;20195;-66
2024/03/29 12:55:24;;;;;;;1.10;0.00;;;22.00;98.70;;;;;;5032299;28;20625;-68
2024/03/29 12:57:53;;;;;;;0.10;0.00;;;22.10;97.50;;;;;;5030587;28;20268;-68
2024/03/29 13:00:22;;;;;;;0.30;0.00;;;22.00;98.20;;;;;;5031129;28;20265;-67
2024/03/29 13:02:49;;;;;;;0.00;0.00;;;21.80;98.40;;;;;;5022295;28;20199;-67
2024/03/29 13:05:17;;;;;;;0.27;0.27;;;21.60;99.70;;;;;;5028022;28;20210;-66
2024/03/29 13:07:44;;;;;;;0.47;0.03;;;21.30;99.00;;;;;;5034721;28;20227;-67
2024/03/29 13:10:14;;;;;;;0.00;0.00;;;21.30;99.40;;;;;;5031626;28;20202;-66
2024/03/29 13:12:43;;;;;;;2.80;0.07;;;21.40;99.90;;;;;;5030144;28;20634;-68
2024/03/29 13:15:18;;;;;;;0.00;0.00;;;21.40;99.60;;;;;;5030258;28;20670;-67
2024/03/29 13:17:55;;;;;;;0.10;0.10;;;21.30;99.40;;;;;;5028369;28;20698;-67
2024/03/29 13:20:24;;;;;;;1.70;0.00;;;21.10;99.80;;;;;;5030323;28;20257;-68
2024/03/29 13:22:57;;;;;;;0.00;0.00;;;21.10;99.50;;;;;;5028608;28;20202;-66
2024/03/29 13:25:24;;;;;;;1.20;0.10;;;21.10;98.50;;;;;;5029900;28;20241;-67
2024/03/29 13:27:57;;;;;;;0.47;0.00;;;21.10;99.90;;;;;;5036628;28;20219;-67
2024/03/29 13:30:26;;;;;;;0.20;0.07;;;21.10;99.90;;;;;;5030916;28;20202;-68
2024/03/29 13:32:55;;;;;;;0.87;0.10;;;21.00;99.30;;;;;;5030457;28;20252;-69
2024/03/29 13:35:22;;;;;;;2.43;0.27;;;20.80;99.40;;;;;;5016180;28;20911;-67
2024/03/29 13:37:50;;;;;;;2.07;0.20;;;20.90;99.20;;;;;;5019835;28;20284;-66
2024/03/29 13:40:20;;;;;;;7.47;0.40;;;21.00;98.70;;;;;;5020731;28;20277;-66
2024/03/29 13:42:48;;;;;;;2.20;0.40;;;21.00;99.00;;;;;;5022758;28;20206;-66
2024/03/29 13:45:16;;;;;;;6.03;0.97;;;20.90;97.80;;;;;;5016547;28;20263;-66
2024/03/29 13:47:44;;;;;;;4.33;0.80;;;20.90;98.00;;;;;;5030440;28;20225;-66
2024/03/29 13:50:15;;;;;;;6.77;1.20;;;20.70;98.70;;;;;;5028024;28;20210;-66
2024/03/29 13:52:42;;;;;;;8.13;1.00;;;20.80;98.50;;;;;;5030662;28;20249;-66
2024/03/29 13:55:10;;;;;;;10.50;1.73;;;20.70;99.30;;;;;;5032681;28;20206;-66
2024/03/29 13:57:37;;;;;;;12.70;2.87;;;20.70;98.30;;;;;;5027035;28;20268;-66
2024/03/29 14:00:05;;;;;;;13.07;2.23;;;20.80;97.80;;;;;;5028640;28;20226;-68
2024/03/29 14:02:32;;;;;;;11.73;2.77;;;20.70;98.10;;;;;;5029374;28;20195;-64
2024/03/29 14:05:00;;;;;;;25.27;3.83;;;20.80;98.50;;;;;;5032014;28;20214;-63
2024/03/29 14:07:29;;;;;;;19.23;2.77;;;20.70;98.60;;;;;;5027174;28;20268;-63
2024/03/29 14:09:56;;;;;;;29.60;3.57;;;20.60;99.00;;;;;;5042418;28;20570;-62
2024/03/29 14:12:24;;;;;;;25.73;4.10;;;20.60;98.70;;;;;;5036654;28;20203;-62
2024/03/29 14:14:53;;;;;;;24.07;3.80;;;20.60;99.90;;;;;;5025130;28;20198;-64
2024/03/29 14:17:21;;;;;;;22.50;3.70;;;20.50;99.90;;;;;;5036202;28;20218;-71
2024/03/29 14:19:49;;;;;;;31.73;5.13;;;20.40;99.90;;;;;;5049523;28;20269;-69
2024/03/29 14:22:18;;;;;;;30.43;5.80;;;20.40;99.90;;;;;;5036385;28;20199;-72
2024/03/29 14:24:47;;;;;;;41.27;6.20;;;20.40;99.90;;;;;;5028774;28;20534;-62
2024/03/29 14:27:14;;;;;;;40.23;5.97;;;20.40;99.90;;;;;;5030772;28;20275;-62
2024/03/29 14:29:44;;;;;;;46.90;7.13;;;20.30;99.90;;;;;;5039326;28;20206;-62
2024/03/29 14:32:11;;;;;;;59.90;9.87;;;20.30;99.90;;;;;;5026327;28;20218;-62
2024/03/29 14:34:44;;;;;;;52.23;7.43;;;20.20;99.90;;;;;;5034812;28;20221;-62
2024/03/29 14:37:15;;;;;;;54.73;8.00;;;20.10;99.90;;;;;;5035683;28;20230;-61
2024/03/29 14:39:43;;;;;;;59.57;7.20;;;20.10;99.90;;;;;;5022632;28;20705;-62
2024/03/29 14:42:14;;;;;;;42.30;9.20;;;20.10;99.90;;;;;;5026628;28;21127;-63
2024/03/29 14:44:42;;;;;;;52.63;8.20;;;20.00;99.90;;;;;;5030836;28;20206;-63